createdAt,value
2023-03-24T00:01:04.805Z,9.84
2023-03-24T00:04:01.681Z,9.91
2023-03-24T00:06:58.753Z,9.90
2023-03-24T00:09:55.860Z,9.87
2023-03-24T00:12:52.734Z,9.83
2023-03-24T00:15:49.608Z,9.68
2023-03-24T00:18:50.324Z,9.63
2023-03-24T00:21:47.178Z,9.75
2023-03-24T00:24:46.819Z,9.79
2023-03-24T00:27:44.925Z,9.86
2023-03-24T00:30:42.162Z,9.82
2023-03-24T00:33:40.422Z,9.80
2023-03-24T00:36:37.670Z,9.65
2023-03-24T00:39:34.668Z,9.66
2023-03-24T00:42:35.464Z,9.77
2023-03-24T00:45:34.514Z,9.73
2023-03-24T00:48:32.508Z,9.68
2023-03-24T00:51:39.107Z,9.54
2023-03-24T00:54:39.928Z,9.47
2023-03-24T00:57:36.757Z,9.53
2023-03-24T01:00:33.678Z,9.48
2023-03-24T01:03:30.492Z,9.39
2023-03-24T01:06:27.309Z,9.25
2023-03-24T01:09:24.555Z,9.20
2023-03-24T01:12:21.845Z,9.15
2023-03-24T01:15:22.007Z,9.12
2023-03-24T01:18:20.034Z,9.08
2023-03-24T01:21:18.289Z,9.13
2023-03-24T01:24:15.116Z,9.09
2023-03-24T01:27:12.008Z,8.96
2023-03-24T01:30:12.121Z,9.09
2023-03-24T01:33:09.947Z,8.91
2023-03-24T01:36:07.820Z,8.93
2023-03-24T01:39:05.324Z,8.92
2023-03-24T01:42:02.246Z,8.82
2023-03-24T01:45:22.205Z,8.92
2023-03-24T01:48:45.625Z,8.83
2023-03-24T01:51:47.632Z,8.91
2023-03-24T01:54:53.321Z,8.93
2023-03-24T01:57:55.997Z,9.08
2023-03-24T02:00:53.557Z,9.17
2023-03-24T02:03:52.882Z,9.13
2023-03-24T02:06:50.740Z,9.05
2023-03-24T02:09:48.435Z,9.14
2023-03-24T02:12:46.404Z,9.15
2023-03-24T02:16:02.771Z,9.13
2023-03-24T02:19:39.672Z,9.08
2023-03-24T02:23:21.529Z,8.99
2023-03-24T02:26:52.258Z,9.09
2023-03-24T02:30:40.425Z,9.04
2023-03-24T02:33:54.267Z,9.08
2023-03-24T02:37:09.857Z,8.90
2023-03-24T02:40:15.309Z,8.93
2023-03-24T02:43:45.589Z,8.95
2023-03-24T02:46:54.856Z,8.88
2023-03-24T02:50:15.292Z,8.92
2023-03-24T02:53:50.646Z,8.94
2023-03-24T02:57:04.428Z,8.92
2023-03-24T03:00:28.355Z,8.81
2023-03-24T03:03:38.333Z,8.81
2023-03-24T03:06:40.341Z,8.74
2023-03-24T03:09:47.429Z,8.83
2023-03-24T03:12:50.498Z,8.67
2023-03-24T03:15:53.978Z,8.57
2023-03-24T03:18:58.124Z,8.58
2023-03-24T03:21:56.618Z,8.71
2023-03-24T03:24:57.430Z,8.84
2023-03-24T03:27:57.430Z,8.85
2023-03-24T03:30:59.378Z,8.74
2023-03-24T03:34:44.385Z,8.72
2023-03-24T03:38:08.566Z,8.67
2023-03-24T03:41:06.337Z,8.92
2023-03-24T03:44:03.231Z,8.93
2023-03-24T03:47:00.742Z,8.79
2023-03-24T03:49:57.637Z,9.00
2023-03-24T03:52:54.912Z,9.09
2023-03-24T03:55:52.274Z,9.25
2023-03-24T03:58:50.074Z,9.01
2023-03-24T04:01:48.818Z,9.22
2023-03-24T04:05:35.113Z,9.19
2023-03-24T04:09:01.973Z,9.24
2023-03-24T04:12:32.986Z,9.43
2023-03-24T04:15:34.631Z,9.45
2023-03-24T04:18:51.594Z,9.44
2023-03-24T04:22:09.553Z,9.34
2023-03-24T04:25:42.339Z,9.21
2023-03-24T04:29:08.936Z,9.44
2023-03-24T04:32:25.327Z,9.09
2023-03-24T04:35:34.166Z,9.22
2023-03-24T04:38:33.321Z,9.36
2023-03-24T04:41:31.890Z,9.44
2023-03-24T04:44:33.038Z,9.50
2023-03-24T04:47:38.485Z,9.43
2023-03-24T04:50:43.193Z,9.52
2023-03-24T04:53:40.151Z,9.59
2023-03-24T04:56:47.734Z,9.56
2023-03-24T04:59:44.921Z,9.59
2023-03-24T05:02:41.755Z,9.74
2023-03-24T05:05:38.590Z,9.74
2023-03-24T05:08:35.531Z,9.62
2023-03-24T05:11:32.325Z,9.72
2023-03-24T05:14:29.153Z,9.80
2023-03-24T05:17:25.966Z,9.80
2023-03-24T05:20:23.543Z,9.86
2023-03-24T05:23:20.469Z,9.87
2023-03-24T05:26:17.929Z,9.89
2023-03-24T05:29:14.986Z,9.91
2023-03-24T05:32:13.390Z,9.90
2023-03-24T05:35:10.319Z,9.92
2023-03-24T05:38:07.540Z,9.95
2023-03-24T05:41:05.852Z,9.95
2023-03-24T05:44:02.689Z,9.95
2023-03-24T05:46:59.513Z,10.02
2023-03-24T05:49:56.361Z,10.06
2023-03-24T05:52:53.173Z,10.11
2023-03-24T05:55:50.057Z,10.04
2023-03-24T05:58:47.032Z,10.10
2023-03-24T06:01:43.867Z,10.12
2023-03-24T06:04:46.542Z,10.11
2023-03-24T06:07:43.671Z,9.98
2023-03-24T06:10:41.110Z,9.98
2023-03-24T06:13:38.005Z,9.94
2023-03-24T06:16:40.724Z,9.92
2023-03-24T06:19:38.631Z,9.98
2023-03-24T06:22:36.292Z,10.08
2023-03-24T06:25:35.406Z,10.15
2023-03-24T06:28:34.483Z,10.07
2023-03-24T06:31:32.666Z,10.09
2023-03-24T06:34:29.883Z,9.92
2023-03-24T06:37:27.274Z,10.03
2023-03-24T06:40:24.097Z,9.88
2023-03-24T06:43:21.181Z,9.82
2023-03-24T06:46:18.035Z,9.77
2023-03-24T06:49:15.387Z,9.70
2023-03-24T06:52:12.256Z,9.65
2023-03-24T06:55:09.507Z,9.66
2023-03-24T06:58:06.414Z,9.65
2023-03-24T07:01:03.313Z,9.64
2023-03-24T07:04:00.624Z,9.54
2023-03-24T07:07:19.090Z,9.56
2023-03-24T07:10:15.766Z,9.66
2023-03-24T07:13:12.586Z,9.75
2023-03-24T07:16:09.417Z,9.67
2023-03-24T07:19:06.271Z,9.73
2023-03-24T07:22:03.147Z,9.82
2023-03-24T07:25:04.472Z,9.76
2023-03-24T07:28:01.684Z,9.73
2023-03-24T07:31:02.887Z,9.77
2023-03-24T07:34:01.835Z,9.88
2023-03-24T07:37:01.647Z,9.92
2023-03-24T07:39:59.060Z,10.01
2023-03-24T07:43:00.002Z,9.97
2023-03-24T07:45:57.022Z,9.98
2023-03-24T07:48:53.936Z,10.00
2023-03-24T07:51:51.185Z,10.02
2023-03-24T07:54:48.099Z,9.96
2023-03-24T07:57:49.617Z,9.94
2023-03-24T08:00:46.814Z,9.98
2023-03-24T08:03:44.216Z,9.93
2023-03-24T08:06:44.162Z,9.91
2023-03-24T08:09:41.476Z,9.97
2023-03-24T08:12:38.824Z,9.99
2023-03-24T08:15:35.671Z,9.97
2023-03-24T08:18:34.897Z,10.01
2023-03-24T08:21:31.976Z,10.02
2023-03-24T08:24:28.803Z,10.05
2023-03-24T08:27:25.713Z,10.11
2023-03-24T08:30:28.123Z,10.06
2023-03-24T08:33:25.050Z,10.14
2023-03-24T08:36:26.414Z,10.15
2023-03-24T08:39:24.288Z,10.19
2023-03-24T08:42:21.201Z,10.26
2023-03-24T08:45:21.508Z,10.25
2023-03-24T08:48:18.366Z,10.36
2023-03-24T08:51:17.480Z,10.33
2023-03-24T08:54:14.356Z,10.40
2023-03-24T08:57:11.326Z,10.37
2023-03-24T09:00:15.468Z,10.36
2023-03-24T09:03:22.035Z,10.42
2023-03-24T09:06:19.245Z,10.35
2023-03-24T09:09:16.393Z,10.33
2023-03-24T09:12:13.332Z,10.34
2023-03-24T09:15:13.438Z,10.38
2023-03-24T09:18:10.456Z,10.43
2023-03-24T09:21:08.302Z,10.43
2023-03-24T09:24:05.527Z,10.41
2023-03-24T09:27:02.623Z,10.37
2023-03-24T09:29:59.491Z,10.31
2023-03-24T09:32:58.937Z,10.35
2023-03-24T09:36:01.305Z,10.25
2023-03-24T09:38:58.436Z,10.24
2023-03-24T09:41:56.056Z,10.34
2023-03-24T09:44:57.785Z,10.45
2023-03-24T09:48:12.543Z,10.36
2023-03-24T09:51:42.449Z,10.36
2023-03-24T09:54:49.795Z,10.46
2023-03-24T09:57:49.465Z,10.43
2023-03-24T10:00:46.850Z,10.32
2023-03-24T10:03:46.233Z,10.29
2023-03-24T10:06:44.067Z,10.27
2023-03-24T10:09:41.319Z,10.22
2023-03-24T10:12:45.440Z,10.22
2023-03-24T10:15:55.133Z,10.24
2023-03-24T10:19:28.885Z,10.20
2023-03-24T10:22:44.361Z,10.21
2023-03-24T10:26:26.046Z,10.30
2023-03-24T10:29:32.427Z,10.69
2023-03-24T10:32:33.518Z,10.46
2023-03-24T10:35:36.655Z,10.47
2023-03-24T10:38:33.526Z,10.47
2023-03-24T10:41:33.381Z,10.46
2023-03-24T10:44:30.649Z,10.57
2023-03-24T10:47:32.861Z,10.64
2023-03-24T10:50:35.936Z,10.59
2023-03-24T10:53:34.069Z,10.54
2023-03-24T10:57:01.970Z,10.54
2023-03-24T11:00:18.924Z,10.50
2023-03-24T11:03:23.359Z,10.44
2023-03-24T11:06:22.069Z,10.57
2023-03-24T11:09:21.878Z,10.61
2023-03-24T11:12:31.438Z,10.62
2023-03-24T11:15:37.384Z,10.59
2023-03-24T11:18:34.455Z,10.62
2023-03-24T11:21:37.835Z,10.67
2023-03-24T11:24:38.454Z,10.65
2023-03-24T11:27:43.106Z,10.54
2023-03-24T11:30:52.399Z,10.44
2023-03-24T11:33:56.696Z,9.91
2023-03-24T11:36:59.281Z,9.50
2023-03-24T11:40:12.379Z,9.27
2023-03-24T11:43:21.383Z,9.25
2023-03-24T11:46:20.849Z,8.88
2023-03-24T11:49:22.695Z,8.89
2023-03-24T11:52:36.106Z,8.79
2023-03-24T11:55:53.664Z,8.71
2023-03-24T11:59:22.406Z,8.68
2023-03-24T12:02:25.813Z,8.70
2023-03-24T12:05:39.616Z,8.74
2023-03-24T12:09:08.335Z,8.54
2023-03-24T12:12:59.318Z,8.56
2023-03-24T12:16:11.220Z,8.50
2023-03-24T12:19:35.534Z,8.59
2023-03-24T12:23:03.987Z,8.66
2023-03-24T12:26:39.138Z,8.90
2023-03-24T12:30:01.797Z,8.84
2023-03-24T12:33:38.335Z,9.05
2023-03-24T12:37:01.817Z,8.93
2023-03-24T12:40:38.420Z,9.09
2023-03-24T12:44:01.964Z,8.79
2023-03-24T12:47:26.593Z,9.05
2023-03-24T12:51:16.537Z,8.97
2023-03-24T12:54:27.966Z,8.94
2023-03-24T12:57:28.304Z,8.73
2023-03-24T13:00:33.854Z,8.93
2023-03-24T13:03:50.475Z,8.88
2023-03-24T13:06:59.852Z,8.90
2023-03-24T13:10:27.845Z,8.78
2023-03-24T13:13:32.787Z,8.75
2023-03-24T13:16:34.452Z,8.58
2023-03-24T13:19:33.191Z,8.85
2023-03-24T13:22:31.878Z,8.53
2023-03-24T13:25:52.531Z,8.87
2023-03-24T13:29:03.820Z,9.09
2023-03-24T13:32:23.810Z,9.05
2023-03-24T13:35:45.446Z,9.08
2023-03-24T13:38:49.622Z,9.31
2023-03-24T13:41:51.956Z,9.29
2023-03-24T13:44:49.297Z,9.03
2023-03-24T13:48:10.415Z,9.15
2023-03-24T13:51:19.543Z,9.27
2023-03-24T13:54:23.773Z,9.46
2023-03-24T13:57:23.569Z,9.59
2023-03-24T14:00:25.070Z,9.40
2023-03-24T14:03:38.670Z,9.71
2023-03-24T14:06:56.168Z,9.60
2023-03-24T14:10:20.822Z,9.75
2023-03-24T14:13:17.614Z,9.71
2023-03-24T14:16:30.807Z,9.85
2023-03-24T14:19:50.234Z,9.50
2023-03-24T14:22:51.714Z,9.33
2023-03-24T14:25:55.959Z,9.54
2023-03-24T14:28:55.232Z,9.75
2023-03-24T14:32:17.128Z,9.92
2023-03-24T14:35:24.048Z,10.00
2023-03-24T14:38:27.005Z,10.20
2023-03-24T14:41:31.273Z,10.15
2023-03-24T14:44:52.400Z,10.03
2023-03-24T14:47:59.564Z,11.01
2023-03-24T14:51:08.589Z,10.95
2023-03-24T14:54:36.914Z,10.83
2023-03-24T14:57:42.595Z,11.94
2023-03-24T15:00:57.948Z,11.43
2023-03-24T15:04:08.309Z,10.86
2023-03-24T15:07:06.340Z,11.36
2023-03-24T15:10:03.225Z,10.77
2023-03-24T15:13:00.156Z,11.38
2023-03-24T15:15:57.830Z,11.34
2023-03-24T15:19:02.033Z,11.21
2023-03-24T15:22:13.487Z,11.18
2023-03-24T15:25:12.269Z,11.02
2023-03-24T15:28:24.512Z,11.59
2023-03-24T15:31:25.067Z,11.66
2023-03-24T15:34:40.359Z,11.32
2023-03-24T15:37:43.156Z,11.22
2023-03-24T15:40:41.189Z,11.27
2023-03-24T15:43:53.551Z,11.25
2023-03-24T15:46:50.770Z,11.14
2023-03-24T15:49:58.450Z,11.17
2023-03-24T15:53:14.983Z,10.58
2023-03-24T15:56:19.378Z,11.07
2023-03-24T15:59:16.268Z,10.76
2023-03-24T16:02:39.271Z,10.93
2023-03-24T16:05:36.344Z,10.78
2023-03-24T16:08:38.866Z,10.65
2023-03-24T16:11:35.922Z,10.43
2023-03-24T16:14:33.328Z,10.42
2023-03-24T16:17:30.600Z,10.19
2023-03-24T16:20:27.759Z,10.43
2023-03-24T16:23:26.308Z,10.28
2023-03-24T16:26:30.278Z,10.15
2023-03-24T16:29:27.200Z,9.74
2023-03-24T16:32:24.265Z,9.92
2023-03-24T16:35:21.182Z,9.69
2023-03-24T16:38:18.092Z,9.96
2023-03-24T16:41:15.802Z,9.55
2023-03-24T16:44:13.417Z,9.48
2023-03-24T16:47:11.524Z,9.49
2023-03-24T16:50:30.446Z,9.52
2023-03-24T16:53:27.352Z,9.57
2023-03-24T16:56:34.226Z,9.65
2023-03-24T16:59:31.066Z,9.42
2023-03-24T17:02:27.988Z,9.28
2023-03-24T17:05:29.498Z,9.19
2023-03-24T17:08:26.315Z,9.17
2023-03-24T17:11:30.448Z,9.14
2023-03-24T17:14:27.461Z,8.75
2023-03-24T17:17:24.415Z,8.64
2023-03-24T17:20:23.550Z,8.55
2023-03-24T17:23:21.943Z,8.48
2023-03-24T17:26:18.809Z,8.40
2023-03-24T17:29:15.731Z,8.35
2023-03-24T17:32:12.696Z,8.81
2023-03-24T17:35:16.859Z,8.53
2023-03-24T17:38:16.528Z,8.13
2023-03-24T17:41:13.574Z,8.09
2023-03-24T17:44:10.893Z,8.19
2023-03-24T17:47:08.494Z,8.07
2023-03-24T17:50:09.863Z,7.87
2023-03-24T17:53:07.271Z,7.90
2023-03-24T17:56:05.537Z,7.85
2023-03-24T17:59:03.491Z,7.64
2023-03-24T18:02:00.317Z,7.46
2023-03-24T18:04:58.613Z,7.64
2023-03-24T18:07:55.460Z,7.51
2023-03-24T18:10:52.437Z,7.84
2023-03-24T18:13:49.675Z,7.76
2023-03-24T18:16:46.576Z,7.86
2023-03-24T18:19:43.528Z,7.93
2023-03-24T18:22:41.008Z,7.77
2023-03-24T18:25:38.050Z,7.60
2023-03-24T18:28:37.497Z,8.06
2023-03-24T18:31:34.818Z,8.00
2023-03-24T18:34:32.173Z,7.84
2023-03-24T18:37:29.447Z,7.65
2023-03-24T18:40:26.464Z,7.42
2023-03-24T18:43:24.033Z,7.38
2023-03-24T18:46:22.084Z,7.07
2023-03-24T18:49:18.948Z,6.96
2023-03-24T18:52:18.004Z,7.16
2023-03-24T18:55:15.799Z,7.04
2023-03-24T18:58:15.377Z,7.11
2023-03-24T19:01:18.621Z,7.07
2023-03-24T19:04:16.871Z,7.04
2023-03-24T19:07:14.646Z,7.44
2023-03-24T19:10:12.800Z,7.74
2023-03-24T19:13:12.877Z,7.43
2023-03-24T19:16:11.652Z,7.60
2023-03-24T19:19:09.817Z,7.70
2023-03-24T19:22:08.166Z,7.68
2023-03-24T19:25:05.807Z,7.67
2023-03-24T19:28:02.667Z,7.52
2023-03-24T19:31:06.938Z,7.79
2023-03-24T19:34:04.004Z,7.73
2023-03-24T19:37:00.837Z,7.83
2023-03-24T19:40:01.512Z,7.68
2023-03-24T19:42:58.584Z,7.71
2023-03-24T19:45:56.184Z,7.89
2023-03-24T19:48:53.120Z,7.85
2023-03-24T19:51:51.117Z,7.81
2023-03-24T19:54:47.951Z,7.84
2023-03-24T19:57:44.910Z,7.85
2023-03-24T20:00:42.035Z,7.75
2023-03-24T20:03:40.036Z,7.80
2023-03-24T20:06:37.058Z,7.95
2023-03-24T20:09:34.026Z,7.85
2023-03-24T20:12:32.185Z,7.97
2023-03-24T20:15:29.101Z,7.86
2023-03-24T20:18:26.090Z,7.92
2023-03-24T20:21:23.566Z,7.93
2023-03-24T20:24:23.583Z,7.99
2023-03-24T20:27:20.654Z,7.85
2023-03-24T20:30:18.751Z,7.83
2023-03-24T20:33:15.562Z,7.77
2023-03-24T20:36:12.419Z,7.86
2023-03-24T20:39:09.689Z,7.91
2023-03-24T20:42:06.495Z,7.86
2023-03-24T20:45:04.641Z,7.78
2023-03-24T20:48:02.286Z,7.90
2023-03-24T20:50:59.940Z,7.75
2023-03-24T20:53:56.779Z,7.70
2023-03-24T20:56:53.622Z,7.65
2023-03-24T20:59:51.040Z,7.62
2023-03-24T21:02:47.950Z,7.69
2023-03-24T21:05:44.853Z,7.63
2023-03-24T21:08:44.595Z,7.58
2023-03-24T21:11:41.947Z,7.58
2023-03-24T21:14:38.974Z,7.43
2023-03-24T21:17:35.821Z,7.55
2023-03-24T21:20:32.674Z,7.61
2023-03-24T21:23:32.739Z,7.52
2023-03-24T21:26:30.283Z,7.39
2023-03-24T21:29:27.172Z,7.29
2023-03-24T21:32:24.041Z,7.43
2023-03-24T21:35:21.583Z,7.48
2023-03-24T21:38:18.776Z,7.50
2023-03-24T21:41:17.269Z,7.55
2023-03-24T21:44:14.798Z,7.54
2023-03-24T21:47:12.439Z,7.56
2023-03-24T21:50:11.499Z,7.51
2023-03-24T21:53:14.831Z,7.41
2023-03-24T21:56:11.726Z,7.39
2023-03-24T21:59:09.852Z,7.39
2023-03-24T22:02:14.445Z,7.36
2023-03-24T22:05:13.963Z,7.30
2023-03-24T22:08:12.126Z,7.26
2023-03-24T22:11:09.621Z,7.12
2023-03-24T22:14:06.751Z,7.11
2023-03-24T22:17:05.129Z,7.06
2023-03-24T22:20:05.089Z,7.04
2023-03-24T22:23:03.507Z,7.08
2023-03-24T22:26:03.921Z,7.08
2023-03-24T22:29:02.101Z,7.02
2023-03-24T22:31:59.210Z,6.97
2023-03-24T22:34:56.063Z,6.90
2023-03-24T22:37:52.856Z,6.77
2023-03-24T22:40:50.104Z,6.74
2023-03-24T22:43:46.926Z,6.69
2023-03-24T22:46:43.766Z,6.60
2023-03-24T22:49:41.399Z,6.76
2023-03-24T22:52:38.205Z,6.50
2023-03-24T22:55:36.136Z,6.49
2023-03-24T22:58:32.998Z,6.65
2023-03-24T23:01:29.846Z,6.69
2023-03-24T23:04:26.702Z,6.69
2023-03-24T23:07:23.526Z,6.66
2023-03-24T23:10:20.797Z,6.67
2023-03-24T23:13:17.730Z,6.70
2023-03-24T23:16:14.612Z,6.56
2023-03-24T23:19:12.218Z,6.44
2023-03-24T23:22:09.022Z,6.53
2023-03-24T23:28:03.802Z,6.75
2023-03-24T23:31:00.999Z,7.04
2023-03-24T23:34:00.200Z,7.23
2023-03-24T23:36:57.806Z,7.15
2023-03-24T23:39:54.826Z,7.24
2023-03-24T23:42:51.745Z,7.28
2023-03-24T23:45:48.744Z,7.32
2023-03-24T23:48:45.946Z,7.31
2023-03-24T23:51:43.263Z,7.28
2023-03-24T23:54:40.290Z,7.29
2023-03-24T23:57:42.168Z,7.31
